New Florence, MO

4:16 AM CST on December 27, 2014 (GMT -0600)
KMOBIGSP1 | Change Station
CLOSE
Current Station
Personal Weather Station
Location: BIG SPRING, MO
Elevation: 553 ft
Nearby Weather Stations

Elev 553 ft 38.81 °N, 91.48 °W | Updated 35 seconds ago

Overcast
Overcast
49.9 °F
Feels Like 49 °F
N
4.0
Wind Variable Wind from South
Gusts 8.0 mph

Today
High -- | Low -- °F
--% Chance of Precip.
Yesterday
High -- | Low -- °F
Precip. -- in
7:23 AM 4:50 PM
Waxing Crescent, 35% visible
Pressure 30.04 in
Visibility 10.0 miles
Clouds Overcast 2700 ft
Windchill 49 °F
Dew Point 48 °F
Humidity 92%
Rainfall 0.00 in
Snow Depth Not available.
UV 0 out of 12
Pollen 3.60 out of 12
Air Quality Not available.
Flu Activity Not available.
METAR KFYG 270955Z AUTO 17006KT 10SM OVC027 09/08 A3004 RMK AO2

More Conditions Fewer Conditions

Pressure 30.04 in
Visibility 10.0 miles
Clouds Overcast 2700 ft
Windchill 49 °F
Dew Point 48 °F
Humidity 92%
Rainfall 0.00 in
Snow Depth Not available.
UV 0 out of 12
Pollen 3.60 out of 12
Air Quality Not available.
Flu Activity Not available.
METAR KFYG 270955Z AUTO 17006KT 10SM OVC027 09/08 A3004 RMK AO2

More Conditions Fewer Conditions

10-Day Weather Forecast

Almanac

Astronomy

Dec. 27, 2014 Rise Set
Actual Time
Civil Twilight
Nautical Twilight
Astronomical Twilight
Moon
Length of Visible Light
Length of Day
Tomorrow will be .
, % of the Moon is Illuminated

Today's Extremes

State Highs State Lows

Community

WunderPhotos

Upload Photos

1,780,869 photos uploaded!

WunderBlogs® & News

Nearby

Air Quality

  Air Quality AQ Index Pollutant
Not available.

Snow Depth

Station Depth Elevation

Earthquake Activity

City Distance Mag. Time & Date
Minimum magnitude displayed is 2.5.

Coastal Water Temperatures

Place Temperature

Nearby Weather Stations